Flag for Bulgaria

Past Weather in 42°41'35.0"N, 27°42'29.9"E, Bulgaria — Yesterday and Last 2 Weeks

Currently: 55 °F. Cool. (Weather station: Burgas Airport, Bulgaria). See more current weather

Past Weather in 42°41'35.0"N, 27°42'29.9"E — Graph

°F

42°41'35.0"N, 27°42'29.9"E Temperature Yesterday

Maximum temperature yesterday: 64 °F (at 2:30 pm)
Minimum temperature yesterday: 39 °F (at 12:00 am)
Average temperature yesterday: 50 °F

High & Low Weather Summary for the Past Weeks

 TemperatureHumidityPressure
High70 °F (Feb 24, 2:00 pm)100% (Feb 13, 6:30 am)30.39 "Hg (Feb 13, 6:30 am)
Low34 °F (Feb 21, 7:00 am)46% (Feb 24, 2:00 pm)29.65 "Hg (Feb 12, 2:30 pm)
Average49 °F77%30.07 "Hg
* Reported Feb 9 8:00 pm — Feb 24 8:00 pm, 42°41'35.0"N, 27°42'29.9"E. Weather by CustomWeather, © 2024

Note: Actual official high and low records may vary slightly from our data, if they occured in-between our weather recording intervals... More about our weather records

42°41'35.0"N, 27°42'29.9"E Weather History for the Previous 24 Hours

Scroll right to see more
 ConditionsComfort  
Time TempWeatherWind HumidityBarometerVisibility
8:00 pm
Sat, Feb 24
55 °FCool.5 mph67%30.07 "HgN/A
7:30 pm61 °FRefreshingly cool.10 mph59%30.04 "HgN/A
7:00 pm61 °FRefreshingly cool.12 mph59%30.04 "HgN/A
6:30 pm64 °FClear.14 mph52%30.04 "Hg10 mi
6:00 pm64 °FClear.14 mph52%30.01 "Hg10 mi
5:30 pm66 °FSunny.14 mph49%30.01 "Hg10 mi
5:00 pm68 °FSunny.14 mph46%30.01 "Hg10 mi
4:30 pm68 °FSunny.16 mph46%30.01 "Hg10 mi
4:00 pm70 °FSunny.14 mph46%30.01 "Hg10 mi
3:30 pm70 °FSunny.15 mph46%30.01 "Hg10 mi
3:00 pm70 °FSunny.14 mph46%30.01 "Hg10 mi
2:30 pm70 °FSunny.20 mph46%30.01 "Hg10 mi
2:00 pm70 °FSunny.20 mph46%30.01 "Hg10 mi
1:30 pm68 °FPassing clouds.13 mph53%30.01 "HgN/A
1:00 pm66 °FScattered clouds.7 mph60%30.01 "HgN/A
12:30 pm63 °FScattered clouds.6 mph68%30.04 "HgN/A
12:00 pm64 °FScattered clouds.5 mph64%30.04 "HgN/A
11:30 am63 °FPassing clouds.7 mph73%30.04 "HgN/A
11:00 am63 °FPassing clouds.7 mph68%30.04 "HgN/A
10:30 am61 °FPassing clouds.5 mph72%30.04 "HgN/A
10:00 am59 °FPassing clouds.2 mph77%30.04 "HgN/A
9:30 am57 °FSunny.No wind82%30.04 "Hg10 mi
9:00 am55 °FClear.No wind82%30.04 "Hg6 mi
8:30 am52 °FClear.2 mph94%30.04 "Hg6 mi
8:00 am46 °FFog.2 mph100%30.04 "Hg4 mi
7:30 am43 °FQuite cool.No wind93%30.01 "Hg1 mi
7:00 am46 °FFog.5 mph93%30.01 "Hg0 mi
6:30 am48 °FLight rain. Overcast.2 mph100%30.01 "Hg5 mi
6:00 am48 °FFog.1 mph94%30.01 "Hg1 mi
5:30 am48 °FCool.2 mph100%30.01 "HgN/A
5:00 am48 °FPassing clouds.No wind94%30.01 "Hg6 mi
4:30 am50 °FCool.5 mph94%30.01 "HgN/A
4:00 am46 °FCool.6 mph100%29.98 "Hg6 mi
3:30 am46 °FCool.5 mph93%30.01 "HgN/A
3:00 am48 °FCool.3 mph94%30.01 "HgN/A
1:30 am52 °FCool.3 mph82%30.01 "HgN/A
1:00 am50 °FCool.2 mph88%30.01 "HgN/A
12:30 am52 °FCool.3 mph82%30.01 "HgN/A
12:00 am52 °FCool.3 mph82%30.01 "HgN/A
11:30 pm
Fri, Feb 23
50 °FCool.3 mph88%30.01 "HgN/A
11:00 pm52 °FCool.2 mph82%30.01 "HgN/A
10:30 pm52 °FCool.3 mph82%29.98 "HgN/A
10:00 pm52 °FCool.5 mph82%29.98 "HgN/A
9:30 pm52 °FCool.5 mph77%29.98 "HgN/A
9:00 pm55 °FCool.3 mph77%29.98 "HgN/A
8:30 pm55 °FCool.8 mph77%29.98 "HgN/A
8:00 pm55 °FCool.6 mph72%29.98 "HgN/A
Weather by CustomWeather, © 2024

See weather overview